createdAt,value
2023-03-31T00:01:13.492Z,3.97
2023-03-31T00:06:20.845Z,4.03
2023-03-31T00:11:29.390Z,4.30
2023-03-31T00:16:37.319Z,4.28
2023-03-31T00:21:44.230Z,4.10
2023-03-31T00:26:52.278Z,4.22
2023-03-31T00:32:00.205Z,4.13
2023-03-31T00:37:07.147Z,4.43
2023-03-31T00:42:15.354Z,5.28
2023-03-31T00:47:23.438Z,4.28
2023-03-31T00:52:38.050Z,5.33
2023-03-31T00:57:47.327Z,4.90
2023-03-31T01:08:04.060Z,4.78
2023-03-31T01:13:15.230Z,4.88
2023-03-31T01:18:22.570Z,5.40
2023-03-31T01:24:27.954Z,4.97
2023-03-31T01:30:10.572Z,5.95
2023-03-31T01:36:12.898Z,4.40
2023-03-31T01:41:51.136Z,4.45
2023-03-31T01:47:03.905Z,5.00
2023-03-31T01:52:19.432Z,4.25
2023-03-31T01:57:34.795Z,4.10
2023-03-31T02:02:48.089Z,4.20
2023-03-31T02:08:00.369Z,4.47
2023-03-31T02:13:09.227Z,4.75
2023-03-31T02:18:19.799Z,4.03
2023-03-31T02:23:30.126Z,4.28
2023-03-31T02:28:39.167Z,3.92
2023-03-31T02:33:45.760Z,4.13
2023-03-31T02:38:58.588Z,4.13
2023-03-31T02:44:08.949Z,4.22
2023-03-31T02:49:17.476Z,3.90
2023-03-31T02:54:55.484Z,4.10
2023-03-31T03:00:16.893Z,3.88
2023-03-31T03:05:38.040Z,3.97
2023-03-31T03:11:18.392Z,4.20
2023-03-31T03:16:28.763Z,4.40
2023-03-31T03:21:35.755Z,4.40
2023-03-31T03:26:42.161Z,4.00
2023-03-31T03:31:50.140Z,4.38
2023-03-31T03:36:56.554Z,4.07
2023-03-31T03:42:02.984Z,3.80
2023-03-31T03:47:11.049Z,3.65
2023-03-31T03:52:17.664Z,3.73
2023-03-31T03:57:24.107Z,4.43
2023-03-31T04:02:31.940Z,4.07
2023-03-31T04:07:38.330Z,5.22
2023-03-31T04:12:44.890Z,3.85
2023-03-31T04:17:55.061Z,4.25
2023-03-31T04:23:02.960Z,4.20
2023-03-31T04:28:10.882Z,3.67
2023-03-31T04:33:19.446Z,3.53
2023-03-31T04:38:33.974Z,4.30
2023-03-31T04:43:41.541Z,3.53
2023-03-31T04:48:49.791Z,4.80
2023-03-31T04:53:56.184Z,5.30
2023-03-31T04:59:04.194Z,5.95
2023-03-31T05:04:12.329Z,5.55
2023-03-31T05:09:19.223Z,6.47
2023-03-31T05:14:25.967Z,6.03
2023-03-31T05:19:34.008Z,6.95
2023-03-31T05:24:40.427Z,6.45
2023-03-31T05:29:46.905Z,6.20
2023-03-31T05:34:59.007Z,6.32
2023-03-31T05:40:11.563Z,6.78
2023-03-31T05:45:19.183Z,6.88
2023-03-31T05:50:27.508Z,8.00
2023-03-31T05:55:34.158Z,6.60
2023-03-31T06:00:40.902Z,7.45
2023-03-31T06:05:54.314Z,6.10
2023-03-31T06:11:00.725Z,7.35
2023-03-31T06:16:09.090Z,7.55
2023-03-31T06:21:19.586Z,6.40
2023-03-31T06:26:26.284Z,6.47
2023-03-31T06:31:33.928Z,7.38
2023-03-31T06:36:42.329Z,6.95
2023-03-31T06:41:48.621Z,7.60
2023-03-31T06:47:04.285Z,8.50
2023-03-31T06:52:12.609Z,7.53
2023-03-31T06:57:19.095Z,6.78
2023-03-31T07:02:25.731Z,7.15
2023-03-31T07:07:35.910Z,7.00
2023-03-31T07:12:42.288Z,7.35
2023-03-31T07:17:51.466Z,6.50
2023-03-31T07:22:59.851Z,5.93
2023-03-31T07:28:08.342Z,5.87
2023-03-31T07:33:14.715Z,5.53
2023-03-31T07:38:22.880Z,5.45
2023-03-31T07:43:29.490Z,5.80
2023-03-31T07:48:36.194Z,6.05
2023-03-31T07:53:44.288Z,5.65
2023-03-31T07:58:51.842Z,5.53
2023-03-31T08:03:59.497Z,5.50
2023-03-31T08:09:08.802Z,5.65
2023-03-31T08:19:21.484Z,6.07
2023-03-31T08:24:29.383Z,5.85
2023-03-31T08:29:35.775Z,6.10
2023-03-31T08:34:43.137Z,6.82
2023-03-31T08:39:51.092Z,5.82
2023-03-31T08:45:04.529Z,5.28
2023-03-31T08:50:18.808Z,6.07
2023-03-31T08:55:33.412Z,4.10
2023-03-31T09:00:48.736Z,3.50
2023-03-31T09:06:02.846Z,3.65
2023-03-31T09:11:23.267Z,2.63
2023-03-31T09:16:37.571Z,3.85
2023-03-31T09:21:47.513Z,2.92
2023-03-31T09:26:58.497Z,2.20
2023-03-31T09:32:15.687Z,2.50
2023-03-31T09:37:23.413Z,2.58
2023-03-31T09:42:33.846Z,2.40
2023-03-31T09:47:44.862Z,2.05
2023-03-31T09:52:54.793Z,2.10
2023-03-31T09:58:08.106Z,1.85
2023-03-31T10:03:16.416Z,1.80
2023-03-31T10:08:29.761Z,1.67
2023-03-31T10:13:48.705Z,1.23
2023-03-31T10:24:02.992Z,2.45
2023-03-31T10:29:18.536Z,2.25
2023-03-31T10:34:27.050Z,1.90
2023-03-31T10:39:34.775Z,2.50
2023-03-31T10:44:42.804Z,1.55
2023-03-31T10:49:58.170Z,2.13
2023-03-31T10:55:05.371Z,1.60
2023-03-31T11:00:26.010Z,1.70
2023-03-31T11:05:40.874Z,2.47
2023-03-31T11:11:22.876Z,1.75
2023-03-31T11:16:41.033Z,2.45
2023-03-31T11:22:03.464Z,2.45
2023-03-31T11:27:37.081Z,2.03
2023-03-31T11:32:57.950Z,1.77
2023-03-31T11:38:28.171Z,1.80
2023-03-31T11:43:42.523Z,2.15
2023-03-31T11:48:59.593Z,2.13
2023-03-31T11:54:12.585Z,2.35
2023-03-31T11:59:22.231Z,2.90
2023-03-31T12:04:38.633Z,3.00
2023-03-31T12:09:56.241Z,1.73
2023-03-31T12:15:14.983Z,1.55
2023-03-31T12:20:32.932Z,1.58
2023-03-31T12:25:50.016Z,1.87
2023-03-31T12:30:58.424Z,1.75
2023-03-31T12:36:30.745Z,1.88
2023-03-31T12:41:46.673Z,1.75
2023-03-31T12:47:42.297Z,1.77
2023-03-31T12:53:00.648Z,1.85
2023-03-31T12:58:49.495Z,2.00
2023-03-31T13:04:18.246Z,1.50
2023-03-31T13:09:53.342Z,3.05
2023-03-31T13:15:00.874Z,1.33
2023-03-31T13:20:36.316Z,1.70
2023-03-31T13:25:52.261Z,1.85
2023-03-31T13:31:02.785Z,1.85
2023-03-31T13:36:57.258Z,1.52
2023-03-31T13:42:24.983Z,1.95
2023-03-31T13:48:06.651Z,1.70
2023-03-31T13:53:34.726Z,1.50
2023-03-31T13:59:42.310Z,1.70
2023-03-31T14:05:24.457Z,1.67
2023-03-31T14:10:35.055Z,1.33
2023-03-31T14:15:48.156Z,1.58
2023-03-31T14:21:18.377Z,2.00
2023-03-31T14:26:47.455Z,1.42
2023-03-31T14:32:07.514Z,1.30
2023-03-31T14:37:18.104Z,1.63
2023-03-31T14:42:48.734Z,1.20
2023-03-31T14:48:05.051Z,1.33
2023-03-31T14:53:17.732Z,2.30
2023-03-31T14:58:29.700Z,2.25
2023-03-31T15:03:44.498Z,1.70
2023-03-31T15:08:51.915Z,1.70
2023-03-31T15:14:04.998Z,2.05
2023-03-31T15:19:18.568Z,2.78
2023-03-31T15:24:27.042Z,2.60
2023-03-31T15:29:39.717Z,2.20
2023-03-31T15:34:51.780Z,1.90
2023-03-31T15:40:00.901Z,1.70
2023-03-31T15:50:48.042Z,1.65
2023-03-31T15:56:00.194Z,1.67
2023-03-31T16:01:08.179Z,1.45
2023-03-31T16:06:26.010Z,1.63
2023-03-31T16:11:42.861Z,10.32
2023-03-31T16:16:54.212Z,1.70
2023-03-31T16:22:05.115Z,6.63
2023-03-31T16:27:11.742Z,1.52
2023-03-31T16:32:21.038Z,2.08
2023-03-31T16:37:29.854Z,1.60
2023-03-31T16:42:36.663Z,4.70
2023-03-31T16:47:45.601Z,2.45
2023-03-31T16:52:54.650Z,2.03
2023-03-31T16:58:03.550Z,4.15
2023-03-31T17:03:12.703Z,2.25
2023-03-31T17:08:24.076Z,1.70
2023-03-31T17:13:32.945Z,1.40
2023-03-31T17:18:40.463Z,2.65
2023-03-31T17:23:50.044Z,5.18
2023-03-31T17:28:57.445Z,4.00
2023-03-31T17:34:05.218Z,4.28
2023-03-31T17:39:14.820Z,7.63
2023-03-31T17:44:24.201Z,5.95
2023-03-31T17:49:33.341Z,22.02
2023-03-31T18:01:30.753Z,9.23
2023-03-31T18:06:39.667Z,13.45
2023-03-31T18:11:49.600Z,10.63
2023-03-31T18:16:59.854Z,26.10
2023-03-31T18:22:08.939Z,14.95
2023-03-31T18:27:19.064Z,21.23
2023-03-31T18:32:29.330Z,30.58
2023-03-31T18:37:38.266Z,16.23
2023-03-31T18:42:51.073Z,14.30
2023-03-31T18:48:03.530Z,13.35
2023-03-31T18:53:15.768Z,15.38
2023-03-31T18:58:29.856Z,15.77
2023-03-31T19:03:41.190Z,24.58
2023-03-31T19:08:50.385Z,54.10
2023-03-31T19:14:01.201Z,12.73
2023-03-31T19:19:16.294Z,13.77
2023-03-31T19:24:37.758Z,13.32
2023-03-31T19:30:03.070Z,11.88
2023-03-31T19:35:17.378Z,10.80
2023-03-31T19:40:36.215Z,12.18
2023-03-31T19:45:46.081Z,12.73
2023-03-31T19:51:01.495Z,15.55
2023-03-31T19:56:19.731Z,9.88
2023-03-31T20:01:31.419Z,8.13
2023-03-31T20:06:47.020Z,8.70
2023-03-31T20:11:59.762Z,6.97
2023-03-31T20:17:09.438Z,5.97
2023-03-31T20:22:22.568Z,6.93
2023-03-31T20:27:31.388Z,6.75
2023-03-31T20:37:52.535Z,6.35
2023-03-31T20:42:59.766Z,6.63
2023-03-31T20:48:08.448Z,9.73
2023-03-31T20:53:17.305Z,9.60
2023-03-31T20:58:24.765Z,12.13
2023-03-31T21:03:32.950Z,10.02
2023-03-31T21:08:42.910Z,10.15
2023-03-31T21:13:49.653Z,11.40
2023-03-31T21:18:59.397Z,11.57
2023-03-31T21:24:10.524Z,9.48
2023-03-31T21:29:19.581Z,10.73
2023-03-31T21:34:31.927Z,6.80
2023-03-31T21:39:42.766Z,6.53
2023-03-31T21:44:50.970Z,6.35
2023-03-31T21:49:57.841Z,5.95
2023-03-31T21:55:06.755Z,6.35
2023-03-31T22:00:16.144Z,5.45
2023-03-31T22:05:22.974Z,6.25
2023-03-31T22:10:31.318Z,5.93
2023-03-31T22:15:41.913Z,6.83
2023-03-31T22:20:48.953Z,5.30
2023-03-31T22:25:57.594Z,6.30
2023-03-31T22:31:04.955Z,7.18
2023-03-31T22:36:12.669Z,7.20
2023-03-31T22:41:20.888Z,6.78
2023-03-31T22:46:27.888Z,7.28
2023-03-31T22:51:35.353Z,6.55
2023-03-31T22:56:43.656Z,6.72
2023-03-31T23:01:54.280Z,6.65
2023-03-31T23:07:01.212Z,7.43
2023-03-31T23:12:09.258Z,6.63
2023-03-31T23:17:15.626Z,5.75
2023-03-31T23:22:22.269Z,7.25
2023-03-31T23:27:30.460Z,6.97
2023-03-31T23:32:37.056Z,7.40
2023-03-31T23:37:43.492Z,6.68
2023-03-31T23:42:51.535Z,6.38
2023-03-31T23:47:57.946Z,6.60
2023-03-31T23:53:04.262Z,6.05
2023-03-31T23:58:12.195Z,7.32
